Capitol Logistics 81


YSSY
Kingsford Smith International Airport
Sydney, AU
PHNL
Daniel K Inouye International Airport
Honolulu, US

Route Details

Aircraft Information
Primary: Boeing 747-400BCF
Backup: Boeing 777-200LRF
Route Data
Distance: 4417nm
Sched. Duration: 10h 30m
Avg. Duration: 8h 71m (-158m)
Times Flown: 3
Recm'd Route: TESAT G595 GUTIV DUDEP NATLI A579 UBLIN A579 VIRAR 23S170E 18S175E 15S178E 13S180E IDEMU A579 CUFFY A579 CHEEM A579 CARRP
Planned Altitude: 31,000ft
Origin Wx: YSSY 130000Z 31007KT 9999 FEW020 SCT055 FEW025TCU 14/10 Q1018
Dest. Wx: PHNL 122353Z 06017G25KT 10SM FEW030 SCT050 BKN060 29/17 A3001 RMK AO2 PK WND 07026/2310 SLP160 T02890167 10300 20272 58008 $
Notes:

Financial History
Total Freight: 515,918lbs
Average Load: 171,973lbs/flt
Fuel Used: 575,578lbs
Avg. Fuel Used: 191,859lbs/flt
Fuel Expense: $460,462
Avg. Fuel Expense: $153,487
Avg. Fuel Cost: $0.80/lbs
Total Gross Income: $1,822,237
Pilot Pay: $487
Total Expenses: $196,958
Total Revenue: $1,160,257
Average Revenue: $607,412.19